Time;durP1;ratioP1;P1;durP2;ratioP2;P2;SDS_P1;SDS_P2;PMS_P1;PMS_P2;Temp;Humidity;BMP_temperature;BMP_pressure;BME280_temperature;BME280_humidity;BME280_pressure;Samples;Min_cycle;Max_cycle;Signal;HPM_P1;HPM_P2
2023/02/18 00:01:23;;;;;;;2.88;1.98;;;10.40;99.90;;;9.53;100.00;102764.13;4167756;28;20037;-77
2023/02/18 00:03:28;;;;;;;4.13;2.30;;;10.40;99.90;;;9.47;100.00;102756.59;4168780;28;20037;-78
2023/02/18 00:05:29;;;;;;;2.60;2.10;;;10.50;99.90;;;9.49;100.00;102754.75;4184409;28;20101;-78
2023/02/18 00:07:38;;;;;;;3.13;2.10;;;10.50;99.90;;;9.56;100.00;102761.28;4170769;28;20032;-78
2023/02/18 00:09:39;;;;;;;2.13;1.70;;;10.50;99.90;;;9.55;100.00;102764.88;4168351;28;20025;-78
2023/02/18 00:11:40;;;;;;;5.63;2.15;;;10.40;99.90;;;9.58;100.00;102763.84;4167562;28;20083;-78
2023/02/18 00:13:41;;;;;;;3.17;2.20;;;10.40;99.90;;;9.48;100.00;102745.13;4167980;28;20060;-78
2023/02/18 00:15:42;;;;;;;4.38;2.20;;;10.40;99.90;;;9.58;100.00;102758.56;4167924;28;20146;-78
2023/02/18 00:17:43;;;;;;;3.72;2.40;;;10.50;99.90;;;9.52;100.00;102751.91;4169371;28;20041;-78
2023/02/18 00:19:44;;;;;;;2.60;1.98;;;10.40;99.90;;;9.51;100.00;102741.44;4167414;28;20021;-78
2023/02/18 00:21:47;;;;;;;3.30;2.38;;;10.50;99.90;;;9.58;100.00;102763.84;4167438;28;20060;-78
2023/02/18 00:23:48;;;;;;;3.08;2.60;;;10.40;99.90;;;9.46;100.00;102749.69;4183890;28;20094;-78
2023/02/18 00:25:57;;;;;;;4.57;2.38;;;10.40;99.90;;;9.56;100.00;102771.00;4167090;28;20056;-78
2023/02/18 00:27:58;;;;;;;3.50;2.35;;;10.50;99.90;;;9.47;100.00;102753.97;4167777;28;20041;-78
2023/02/18 00:29:59;;;;;;;3.90;2.30;;;10.40;99.90;;;9.55;100.00;102770.16;4185463;28;20032;-78
2023/02/18 00:32:00;;;;;;;3.25;2.45;;;10.40;99.90;;;9.45;100.00;102754.09;4183287;28;20103;-78
2023/02/18 00:34:04;;;;;;;3.42;2.50;;;10.40;99.90;;;9.42;100.00;102756.06;4171751;28;20500;-78
2023/02/18 00:36:10;;;;;;;2.63;2.22;;;10.40;99.90;;;9.45;100.00;102758.50;4167194;28;20085;-78
2023/02/18 00:38:11;;;;;;;2.85;2.30;;;10.40;99.90;;;9.43;100.00;102757.78;4176718;28;20041;-78
2023/02/18 00:40:12;;;;;;;4.45;2.60;;;10.40;99.90;;;9.49;100.00;102773.19;4167198;28;20040;-78
2023/02/18 00:42:13;;;;;;;5.07;3.40;;;10.40;99.90;;;9.45;100.00;102766.41;4170181;28;20045;-78
2023/02/18 00:44:14;;;;;;;6.28;3.65;;;10.40;99.90;;;9.48;100.00;102765.38;4167383;28;20559;-78
2023/02/18 00:46:16;;;;;;;3.25;2.83;;;10.40;99.90;;;9.41;100.00;102751.75;4183940;28;20091;-78
2023/02/18 00:48:17;;;;;;;3.67;2.88;;;10.40;99.90;;;9.47;100.00;102763.69;4167217;28;20029;-78
2023/02/18 00:50:18;;;;;;;3.95;2.72;;;10.40;99.90;;;9.48;100.00;102766.22;4169971;28;20061;-78
2023/02/18 00:52:19;;;;;;;5.97;2.60;;;10.40;99.90;;;9.41;100.00;102757.00;4167401;28;20026;-78
2023/02/18 00:54:20;;;;;;;4.90;2.92;;;10.40;99.90;;;9.44;100.00;102762.94;4173018;28;20025;-78
2023/02/18 00:56:22;;;;;;;3.70;2.20;;;10.30;99.90;;;9.45;100.00;102769.03;4177860;28;20476;-78
2023/02/18 00:58:23;;;;;;;3.35;2.45;;;10.40;99.90;;;9.49;100.00;102765.28;4150924;28;20080;-78
2023/02/18 01:00:24;;;;;;;2.50;1.92;;;10.40;99.90;;;9.50;100.00;102761.69;4167235;28;20021;-78
2023/02/18 01:02:25;;;;;;;2.78;2.10;;;10.40;99.90;;;9.46;100.00;102757.56;4167274;28;20032;-78
2023/02/18 01:04:26;;;;;;;3.72;2.97;;;10.40;99.90;;;9.48;100.00;102760.09;4167167;28;20056;-78
2023/02/18 01:06:27;;;;;;;3.33;2.90;;;10.30;99.90;;;9.38;100.00;102752.78;4174928;28;20033;-78
2023/02/18 01:08:28;;;;;;;4.60;3.47;;;10.30;99.90;;;9.32;100.00;102747.06;4169245;28;20025;-78
2023/02/18 01:10:29;;;;;;;4.10;3.20;;;10.30;99.90;;;9.25;100.00;102749.28;4168091;28;20040;-78
2023/02/18 01:12:30;;;;;;;4.90;3.28;;;10.20;99.90;;;9.25;100.00;102762.44;4167222;28;20056;-78
2023/02/18 01:14:31;;;;;;;5.05;3.45;;;10.20;99.90;;;9.23;100.00;102763.44;4168282;28;20033;-78
2023/02/18 01:16:32;;;;;;;3.83;3.17;;;10.10;99.90;;;9.23;100.00;102759.03;4173854;28;20036;-78
2023/02/18 01:18:33;;;;;;;4.00;2.88;;;10.10;99.90;;;9.19;100.00;102757.56;4168295;28;20079;-78
2023/02/18 01:20:40;;;;;;;5.05;2.92;;;10.10;99.90;;;9.27;100.00;102764.97;4169866;28;20022;-78
2023/02/18 01:22:41;;;;;;;5.00;3.10;;;10.20;99.90;;;9.27;100.00;102770.22;4170107;28;20100;-78
2023/02/18 01:24:42;;;;;;;4.50;3.00;;;10.20;99.90;;;9.23;100.00;102752.91;4185891;28;20091;-78
2023/02/18 01:26:43;;;;;;;3.70;2.90;;;10.20;99.90;;;9.30;100.00;102762.13;4174453;28;20025;-78
2023/02/18 01:28:44;;;;;;;4.57;3.10;;;10.20;99.90;;;9.29;100.00;102757.78;4170137;28;20029;-78
2023/02/18 01:30:45;;;;;;;5.07;3.00;;;10.20;99.90;;;9.22;100.00;102741.56;4169858;28;20021;-78
2023/02/18 01:32:45;;;;;;;3.17;2.88;;;10.20;99.90;;;9.21;100.00;102745.13;4171365;28;20454;-78
2023/02/18 01:34:46;;;;;;;4.47;2.78;;;10.20;99.90;;;9.24;100.00;102752.00;4170119;28;20059;-78
2023/02/18 01:36:47;;;;;;;3.60;2.55;;;10.20;99.90;;;9.25;100.00;102759.81;4170892;28;20159;-78
2023/02/18 01:38:48;;;;;;;4.68;3.00;;;10.20;99.90;;;9.27;100.00;102764.97;4171077;28;20096;-78
2023/02/18 01:40:51;;;;;;;2.80;2.47;;;10.20;99.90;;;9.22;100.00;102756.53;4153191;28;20025;-78
2023/02/18 01:42:53;;;;;;;3.93;2.33;;;10.20;99.90;;;9.24;100.00;102757.25;4186488;28;20037;-78
2023/02/18 01:45:37;;;;;;;4.80;2.40;;;10.20;99.90;;;9.29;100.00;102766.53;4169978;28;20030;-78
2023/02/18 01:47:38;;;;;;;5.03;2.58;;;10.20;99.90;;;9.28;100.00;102770.16;4172914;28;20040;-78
2023/02/18 01:49:40;;;;;;;4.00;2.70;;;10.20;99.90;;;9.23;100.00;102750.28;4179222;28;20025;-78
2023/02/18 01:51:49;;;;;;;3.20;2.28;;;10.20;99.90;;;9.29;100.00;102757.78;4169975;28;20029;-78
2023/02/18 01:54:16;;;;;;;3.33;2.45;;;10.20;99.90;;;9.24;100.00;102741.44;4171346;28;20021;-78
2023/02/18 01:56:46;;;;;;;4.05;2.55;;;10.20;99.90;;;9.25;100.00;102743.16;4181926;28;20500;-78
2023/02/18 01:58:48;;;;;;;6.70;3.15;;;10.20;99.90;;;9.21;100.00;102731.97;4154975;28;20046;-78
2023/02/18 02:00:49;;;;;;;4.20;2.58;;;10.20;99.90;;;9.25;100.00;102741.38;4169588;28;20026;-78
2023/02/18 02:02:52;;;;;;;3.20;2.60;;;10.20;99.90;;;9.26;100.00;102731.66;4169360;28;20513;-78
2023/02/18 02:04:54;;;;;;;4.45;2.42;;;10.20;99.90;;;9.27;100.00;102734.22;4152890;28;20026;-78
2023/02/18 02:06:55;;;;;;;3.63;2.63;;;10.20;99.90;;;9.15;100.00;102713.94;4192730;28;20029;-78
2023/02/18 02:09:01;;;;;;;3.30;2.63;;;10.20;99.90;;;9.26;100.00;102732.50;4170655;28;20036;-78
2023/02/18 02:11:23;;;;;;;4.45;2.38;;;10.10;99.90;;;9.24;100.00;102723.88;4169506;28;20524;-78
2023/02/18 02:13:52;;;;;;;3.88;2.85;;;10.10;99.90;;;9.17;100.00;102727.84;4169367;28;20113;-78
2023/02/18 02:16:30;;;;;;;2.90;2.60;;;10.10;99.90;;;9.14;100.00;102721.94;4164391;28;20046;-78
2023/02/18 02:18:55;;;;;;;2.72;1.80;;;10.10;99.90;;;9.15;100.00;102719.19;4169570;28;20056;-78
2023/02/18 02:21:21;;;;;;;;;;;10.10;99.90;;;9.18;100.00;102728.69;4169970;28;20120;-78
2023/02/18 02:23:58;;;;;;;3.78;2.50;;;10.10;99.90;;;9.20;100.00;102721.56;4169860;28;19975;-78
2023/02/18 02:25:59;;;;;;;2.85;2.08;;;10.10;99.90;;;9.20;100.00;102713.66;4171401;28;20114;-78
2023/02/18 02:28:37;;;;;;;2.42;1.73;;;10.10;99.90;;;9.22;100.00;102714.38;4170449;28;20104;-78
2023/02/18 02:31:01;;;;;;;3.95;2.22;;;10.10;99.90;;;9.13;100.00;102705.31;4185080;28;20037;-78
2023/02/18 02:33:45;;;;;;;2.70;2.00;;;10.10;99.90;;;9.07;100.00;102702.22;4174667;28;20029;-78
2023/02/18 02:36:02;;;;;;;4.63;2.53;;;10.00;99.90;;;9.08;100.00;102688.94;4187695;28;20028;-78
2023/02/18 02:38:22;;;;;;;3.25;2.00;;;10.00;99.90;;;9.11;100.00;102703.72;4180644;28;20176;-78
2023/02/18 02:40:59;;;;;;;3.92;2.45;;;10.00;99.90;;;9.07;100.00;102694.31;4168504;28;20057;-78
2023/02/18 02:43:22;;;;;;;3.10;1.80;;;10.00;99.90;;;9.08;100.00;102698.66;4171517;28;20056;-78
2023/02/18 02:46:00;;;;;;;3.50;2.20;;;10.00;99.90;;;9.07;100.00;102689.03;4169890;28;20075;-78
2023/02/18 02:48:17;;;;;;;3.25;2.10;;;10.00;99.90;;;9.04;100.00;102692.72;4152174;28;20045;-78
2023/02/18 02:50:58;;;;;;;6.47;2.45;;;10.00;99.90;;;9.00;100.00;102693.00;4169952;28;20108;-78
2023/02/18 02:53:10;;;;;;;2.92;2.20;;;9.90;99.90;;;8.99;100.00;102689.53;4158467;28;20033;-78
2023/02/18 02:55:12;;;;;;;2.78;2.08;;;9.90;99.90;;;8.97;100.00;102682.66;4165444;28;20037;-78
2023/02/18 02:57:16;;;;;;;4.93;2.97;;;9.90;99.90;;;9.04;100.00;102694.50;4173795;28;20041;-78
2023/02/18 02:59:24;;;;;;;2.35;1.77;;;10.00;99.90;;;9.02;100.00;102688.50;4169953;28;20201;-78
2023/02/18 03:02:00;;;;;;;2.85;2.13;;;9.90;99.90;;;9.07;100.00;102683.78;4168824;28;20124;-78
2023/02/18 03:04:28;;;;;;;3.85;2.00;;;10.00;99.90;;;9.04;100.00;102673.44;4174102;28;20024;-78
2023/02/18 03:06:54;;;;;;;4.65;2.13;;;10.00;99.90;;;9.00;100.00;102667.53;4180368;28;20032;-78
2023/02/18 03:09:22;;;;;;;2.90;2.10;;;10.00;99.90;;;9.04;100.00;102673.44;4153137;28;20033;-78
2023/02/18 03:11:24;;;;;;;2.97;2.00;;;9.90;99.90;;;9.02;100.00;102680.59;4172283;28;20112;-78
2023/02/18 03:13:43;;;;;;;2.65;2.10;;;9.90;99.90;;;9.03;100.00;102677.88;4168298;28;20072;-78
2023/02/18 03:15:56;;;;;;;3.42;2.28;;;9.90;99.90;;;9.01;100.00;102669.22;4184672;28;20416;-78
2023/02/18 03:18:26;;;;;;;2.60;1.75;;;9.90;99.90;;;9.05;100.00;102675.97;4168356;28;20070;-78
2023/02/18 03:20:53;;;;;;;3.28;2.08;;;10.00;99.90;;;9.00;100.00;102666.69;4154258;28;20092;-78
2023/02/18 03:22:57;;;;;;;4.47;2.30;;;9.90;99.90;;;9.08;100.00;102665.25;4182158;28;20036;-78
2023/02/18 03:25:00;;;;;;;2.63;2.05;;;10.00;99.90;;;9.08;100.00;102667.88;4184312;28;20385;-78
2023/02/18 03:27:46;;;;;;;2.67;2.30;;;10.00;99.90;;;9.02;100.00;102649.03;4175627;28;20029;-78
2023/02/18 03:29:55;;;;;;;3.33;1.90;;;10.00;99.90;;;9.11;100.00;102661.59;4150037;28;20038;-78
2023/02/18 03:32:04;;;;;;;3.83;2.15;;;10.00;99.90;;;9.08;100.00;102656.53;4152912;28;20014;-78
2023/02/18 03:34:31;;;;;;;3.33;2.30;;;10.00;99.90;;;9.12;100.00;102660.63;4168355;28;20463;-78
2023/02/18 03:36:34;;;;;;;3.60;2.25;;;10.00;99.90;;;9.16;100.00;102665.59;4168541;28;20033;-78
2023/02/18 03:39:16;;;;;;;3.13;2.65;;;10.00;99.90;;;9.14;100.00;102664.84;4151571;28;20026;-78
2023/02/18 03:41:17;;;;;;;7.30;2.78;;;10.00;99.90;;;9.02;100.00;102639.31;4118707;28;20039;-78
2023/02/18 03:43:18;;;;;;;4.63;2.92;;;10.00;99.90;;;9.07;100.00;102641.66;4117895;28;20034;-78
2023/02/18 03:45:19;;;;;;;5.30;3.10;;;10.00;99.90;;;9.13;100.00;102659.69;4102786;28;20039;-78
2023/02/18 03:47:20;;;;;;;3.63;2.95;;;10.00;99.90;;;9.13;100.00;102657.06;4192448;28;20499;-78
2023/02/18 03:49:21;;;;;;;3.85;2.80;;;10.00;99.90;;;9.14;100.00;102659.56;4184325;28;20017;-78
2023/02/18 03:51:23;;;;;;;4.10;2.95;;;10.00;99.90;;;9.13;100.00;102662.31;4177699;28;20030;-78
2023/02/18 03:53:24;;;;;;;3.95;3.05;;;10.00;99.90;;;9.14;100.00;102658.75;4179476;28;20025;-78
2023/02/18 03:55:24;;;;;;;4.18;3.20;;;10.00;99.90;;;9.04;100.00;102647.97;4170441;28;20040;-78
2023/02/18 03:57:25;;;;;;;4.93;3.28;;;10.00;99.90;;;9.11;100.00;102657.13;4158400;28;20497;-78
2023/02/18 03:59:26;;;;;;;4.80;2.67;;;10.00;99.90;;;9.13;100.00;102659.69;4167871;28;20481;-78
2023/02/18 04:01:27;;;;;;;3.53;2.75;;;10.10;99.90;;;9.11;100.00;102657.13;4167571;28;20096;-78
2023/02/18 04:03:28;;;;;;;3.65;2.72;;;10.00;99.90;;;9.10;100.00;102654.63;4168758;28;20034;-78
2023/02/18 04:05:29;;;;;;;4.07;2.80;;;10.00;99.90;;;9.15;100.00;102670.97;4167704;28;20485;-78
2023/02/18 04:07:30;;;;;;;4.93;2.70;;;10.10;99.90;;;9.13;100.00;102662.31;4172417;28;20021;-78
2023/02/18 04:09:31;;;;;;;3.92;2.35;;;10.10;99.90;;;9.06;100.00;102653.13;4168532;28;20033;-78
2023/02/18 04:11:32;;;;;;;3.60;2.30;;;10.10;99.90;;;9.05;100.00;102647.00;4168602;28;20400;-78
2023/02/18 04:13:33;;;;;;;2.97;2.15;;;10.00;99.90;;;9.17;100.00;102663.81;4168846;28;20021;-78
2023/02/18 04:15:34;;;;;;;6.22;2.80;;;10.10;99.90;;;9.15;100.00;102663.06;4167731;28;20116;-78
2023/02/18 04:17:35;;;;;;;3.15;2.38;;;10.10;99.90;;;9.14;100.00;102658.75;4170246;28;20074;-78
2023/02/18 04:19:35;;;;;;;3.65;2.28;;;10.10;99.90;;;9.12;100.00;102656.22;4151270;28;20034;-78
2023/02/18 04:21:36;;;;;;;2.95;1.75;;;10.00;99.90;;;9.10;100.00;102655.47;4171146;28;20491;-78
2023/02/18 04:23:37;;;;;;;3.28;1.77;;;10.00;99.90;;;9.13;100.00;102662.31;4184017;28;20047;-78
2023/02/18 04:25:38;;;;;;;3.13;1.60;;;10.00;99.90;;;9.03;100.00;102643.63;4183769;28;20076;-78
2023/02/18 04:27:39;;;;;;;3.17;1.75;;;10.00;99.90;;;9.04;100.00;102649.75;4170452;28;20029;-78
2023/02/18 04:29:40;;;;;;;2.60;1.52;;;10.00;99.90;;;9.05;100.00;102638.28;4150989;28;20026;-78
2023/02/18 04:31:41;;;;;;;2.35;1.83;;;10.00;99.90;;;9.04;100.00;102647.13;4183821;28;20427;-78
2023/02/18 04:33:42;;;;;;;3.60;1.85;;;10.00;99.90;;;9.04;100.00;102647.13;4185451;28;20032;-78
2023/02/18 04:35:43;;;;;;;2.30;1.80;;;10.00;99.90;;;9.07;100.00;102652.19;4183838;28;20025;-78
2023/02/18 04:37:44;;;;;;;3.58;2.17;;;10.00;99.90;;;9.07;100.00;102657.44;4169916;28;20033;-78
2023/02/18 04:39:45;;;;;;;3.80;2.03;;;10.00;99.90;;;9.05;100.00;102651.47;4167183;28;20428;-78
2023/02/18 04:41:46;;;;;;;2.60;1.60;;;10.00;99.90;;;9.02;100.00;102647.22;4168263;28;20022;-78
2023/02/18 04:43:47;;;;;;;2.40;1.58;;;10.00;99.90;;;9.06;100.00;102650.50;4170305;28;20098;-78
2023/02/18 04:45:48;;;;;;;3.08;1.48;;;10.00;99.90;;;9.09;100.00;102656.41;4167102;28;20034;-78
2023/02/18 04:47:49;;;;;;;3.95;1.60;;;10.00;99.90;;;9.07;100.00;102654.81;4177804;28;20195;-78
2023/02/18 04:49:50;;;;;;;3.92;1.73;;;10.00;99.90;;;9.01;100.00;102647.31;4175757;28;20428;-77
2023/02/18 04:51:51;;;;;;;2.70;1.35;;;10.00;99.90;;;9.01;100.00;102656.06;4167265;28;20033;-78
2023/02/18 04:53:52;;;;;;;1.60;1.10;;;10.00;99.90;;;9.04;100.00;102668.19;4153376;28;20014;-78
2023/02/18 04:55:53;;;;;;;2.42;1.67;;;9.90;99.90;;;9.03;100.00;102671.75;4188074;28;20037;-78
2023/02/18 04:57:54;;;;;;;2.20;1.33;;;10.00;99.90;;;8.92;100.00;102650.53;4173064;28;20493;-78
2023/02/18 04:59:55;;;;;;;3.95;1.30;;;9.90;99.90;;;8.98;100.00;102661.53;4186782;28;20033;-78
2023/02/18 05:01:56;;;;;;;2.03;1.60;;;9.90;99.90;;;9.03;100.00;102667.34;4170378;28;20025;-78
2023/02/18 05:03:57;;;;;;;3.17;1.48;;;9.90;99.90;;;9.02;100.00;102657.75;4171636;28;20119;-78
2023/02/18 05:05:57;;;;;;;3.65;1.42;;;9.90;99.90;;;8.95;100.00;102652.97;4171599;28;20032;-78
2023/02/18 05:07:58;;;;;;;1.90;1.20;;;9.90;99.90;;;9.07;100.00;102665.34;4174758;28;20056;-78
2023/02/18 05:09:59;;;;;;;2.92;1.40;;;10.00;99.90;;;8.99;100.00;102655.31;4170049;28;20013;-78
2023/02/18 05:12:00;;;;;;;1.70;1.10;;;9.90;99.90;;;8.95;100.00;102639.81;4171835;28;20029;-78
2023/02/18 05:14:01;;;;;;;2.28;1.30;;;10.00;99.90;;;9.09;100.00;102666.09;4170428;28;20095;-78
2023/02/18 05:16:02;;;;;;;3.10;1.42;;;10.00;99.90;;;9.10;100.00;102667.78;4170396;28;20624;-78
2023/02/18 05:18:03;;;;;;;2.10;1.40;;;10.00;99.90;;;9.09;100.00;102666.09;4172031;28;20525;-78
2023/02/18 05:20:06;;;;;;;3.15;1.73;;;10.00;99.90;;;9.05;100.00;102660.16;4186752;28;20033;-78
2023/02/18 05:22:07;;;;;;;3.75;1.10;;;10.00;99.90;;;9.09;100.00;102658.19;4170115;28;20160;-78
2023/02/18 05:24:08;;;;;;;1.77;1.30;;;10.00;99.90;;;9.08;100.00;102662.59;4169845;28;20517;-78
2023/02/18 05:26:09;;;;;;;1.80;1.20;;;10.00;99.90;;;9.05;100.00;102660.16;4169776;28;20436;-78
2023/02/18 05:28:10;;;;;;;2.42;1.52;;;10.00;99.90;;;9.02;100.00;102649.03;4165969;28;20085;-78
2023/02/18 05:30:12;;;;;;;2.15;1.40;;;10.00;99.90;;;9.08;100.00;102659.16;4170187;28;20386;-78
2023/02/18 05:32:13;;;;;;;2.20;1.48;;;10.00;99.90;;;9.06;100.00;102655.75;4170101;28;20014;-78
2023/02/18 05:34:14;;;;;;;3.17;1.90;;;10.00;99.90;;;9.06;100.00;102651.34;4169898;28;20022;-78
2023/02/18 05:36:15;;;;;;;2.72;1.67;;;10.00;99.90;;;9.06;100.00;102658.38;4170831;28;20110;-78
2023/02/18 05:38:16;;;;;;;2.85;1.77;;;9.90;99.90;;;9.04;100.00;102660.28;4180108;28;20064;-78
2023/02/18 05:40:17;;;;;;;4.05;1.95;;;9.90;99.90;;;8.99;100.00;102650.03;4169635;28;20432;-78
2023/02/18 05:42:19;;;;;;;3.75;1.90;;;9.90;99.90;;;8.94;100.00;102654.75;4169714;28;20029;-78
2023/02/18 05:44:29;;;;;;;2.58;1.70;;;9.90;99.90;;;9.00;100.00;102650.88;4170378;28;20395;-78
2023/02/18 05:46:30;;;;;;;3.55;1.92;;;9.90;99.90;;;9.01;100.00;102649.97;4186311;28;20025;-78
2023/02/18 05:48:31;;;;;;;2.83;1.80;;;9.90;99.90;;;8.92;100.00;102637.38;4174532;28;20025;-78
2023/02/18 05:50:32;;;;;;;5.40;2.30;;;9.90;99.90;;;8.88;100.00;102626.22;4153360;28;20084;-78
2023/02/18 05:52:33;;;;;;;2.95;1.77;;;9.90;99.90;;;8.93;100.00;102642.53;4169680;28;20443;-78
2023/02/18 05:54:35;;;;;;;4.30;1.95;;;9.90;99.90;;;8.94;100.00;102649.50;4177287;28;20025;-78
2023/02/18 05:56:36;;;;;;;4.63;1.88;;;9.90;99.90;;;8.96;100.00;102644.97;4182842;28;20022;-78
2023/02/18 05:58:37;;;;;;;4.43;2.33;;;9.90;99.90;;;8.96;100.00;102641.53;4170718;28;20029;-78
2023/02/18 06:00:38;;;;;;;3.20;1.75;;;9.90;99.90;;;8.93;100.00;102645.16;4170823;28;20403;-78
2023/02/18 06:02:39;;;;;;;3.25;1.80;;;9.90;99.90;;;8.87;100.00;102645.56;4169778;28;20030;-78
2023/02/18 06:04:39;;;;;;;2.72;1.38;;;9.80;99.90;;;8.70;100.00;102637.91;4170908;28;20036;-78
2023/02/18 06:06:41;;;;;;;3.10;1.98;;;9.70;99.90;;;8.62;100.00;102648.94;4172880;28;20013;-79
2023/02/18 06:08:42;;;;;;;2.67;1.70;;;9.60;99.90;;;8.51;100.00;102647.94;4169586;28;20495;-78
2023/02/18 06:10:43;;;;;;;3.80;1.67;;;9.40;99.90;;;8.37;100.00;102635.63;4168994;28;20057;-78
2023/02/18 06:12:44;;;;;;;3.67;1.85;;;9.40;99.90;;;8.26;100.00;102640.69;4170560;28;20473;-78
2023/02/18 06:14:45;;;;;;;2.30;1.65;;;9.30;99.90;;;8.25;100.00;102647.72;4169327;28;20220;-78
2023/02/18 06:16:46;;;;;;;4.05;2.20;;;9.20;99.90;;;8.29;100.00;102653.66;4170780;28;20052;-78
2023/02/18 06:18:47;;;;;;;2.95;2.05;;;9.20;99.90;;;8.28;100.00;102647.56;4169516;28;20021;-78
2023/02/18 06:20:49;;;;;;;3.65;2.20;;;9.20;99.90;;;8.33;100.00;102650.75;4169436;28;20036;-78
2023/02/18 06:22:50;;;;;;;4.65;2.30;;;9.20;99.90;;;8.30;100.00;102634.34;4169353;28;20388;-78
2023/02/18 06:24:51;;;;;;;2.90;2.28;;;9.30;99.90;;;8.42;100.00;102649.34;4168741;28;20076;-78
2023/02/18 06:26:52;;;;;;;3.47;2.40;;;9.30;99.90;;;8.38;100.00;102653.09;4157708;28;20021;-78
2023/02/18 06:28:53;;;;;;;3.08;2.00;;;9.30;99.90;;;8.41;100.00;102652.91;4176690;28;20059;-78
2023/02/18 06:30:53;;;;;;;3.20;1.98;;;9.30;99.90;;;8.41;100.00;102660.78;4170525;28;20028;-78
2023/02/18 06:32:54;;;;;;;3.33;2.40;;;9.30;99.90;;;8.39;100.00;102654.78;4170328;28;20025;-78
2023/02/18 06:34:55;;;;;;;4.82;2.10;;;9.30;99.90;;;8.30;100.00;102644.84;4169092;28;20029;-78
2023/02/18 06:36:56;;;;;;;4.85;2.10;;;9.30;99.90;;;8.36;100.00;102662.88;4174597;28;20475;-78
2023/02/18 06:38:58;;;;;;;3.95;2.17;;;9.30;99.90;;;8.37;100.00;102661.91;4173005;28;20061;-78
2023/02/18 06:40:59;;;;;;;2.40;1.70;;;9.30;99.90;;;8.33;100.00;102644.66;4168113;28;20120;-78
2023/02/18 06:43:00;;;;;;;4.05;2.80;;;9.30;99.90;;;8.44;100.00;102657.13;4168753;28;20029;-78
2023/02/18 06:45:01;;;;;;;3.70;1.92;;;9.30;99.90;;;8.51;100.00;102661.06;4168602;28;20083;-78
2023/02/18 06:47:02;;;;;;;2.47;1.80;;;9.40;99.90;;;8.47;100.00;102652.53;4177384;28;20021;-78
2023/02/18 06:49:03;;;;;;;3.08;2.17;;;9.40;99.90;;;8.55;100.00;102657.28;4170597;28;20091;-78
2023/02/18 06:51:04;;;;;;;3.58;2.13;;;9.40;99.90;;;8.58;100.00;102668.47;4168967;28;20052;-78
2023/02/18 06:53:05;;;;;;;3.00;2.00;;;9.50;99.90;;;8.52;100.00;102655.69;4168649;28;20028;-78
2023/02/18 06:55:08;;;;;;;3.35;2.20;;;9.50;99.90;;;8.62;100.00;102662.09;4180940;28;20025;-78
2023/02/18 06:57:09;;;;;;;3.42;1.88;;;9.50;99.90;;;8.55;100.00;102655.50;4172693;28;20034;-78
2023/02/18 06:59:10;;;;;;;3.70;1.50;;;9.50;99.90;;;8.53;100.00;102648.66;4152201;28;20049;-78
2023/02/18 07:01:11;;;;;;;2.50;2.10;;;9.50;99.90;;;8.58;100.00;102655.31;4168619;28;20037;-78
2023/02/18 07:03:13;;;;;;;4.70;1.88;;;9.50;99.90;;;8.63;100.00;102665.56;4169952;28;20374;-78
2023/02/18 07:05:14;;;;;;;5.10;2.00;;;9.50;99.90;;;8.58;100.00;102660.56;4168512;28;20033;-78
2023/02/18 07:07:15;;;;;;;2.92;2.13;;;9.50;99.90;;;8.65;100.00;102666.31;4175580;28;20021;-78
2023/02/18 07:09:16;;;;;;;4.68;1.98;;;9.50;99.90;;;8.66;100.00;102668.81;4168367;28;20128;-78
2023/02/18 07:11:17;;;;;;;2.25;1.45;;;9.50;99.90;;;8.64;100.00;102661.97;4168339;28;20091;-78
2023/02/18 07:13:18;;;;;;;3.63;2.08;;;9.60;99.90;;;8.69;100.00;102673.06;4169601;28;20034;-78
2023/02/18 07:15:23;;;;;;;5.25;2.38;;;9.60;99.90;;;8.61;100.00;102657.75;4168509;28;20053;-79
2023/02/18 07:17:24;;;;;;;4.75;2.35;;;9.60;99.90;;;8.73;100.00;102680.66;4174562;28;20409;-78
2023/02/18 07:19:25;;;;;;;3.85;2.40;;;9.60;99.90;;;8.78;100.00;102688.28;4168282;28;20025;-78
2023/02/18 07:21:26;;;;;;;4.13;1.83;;;9.60;99.90;;;8.74;100.00;102677.09;4169688;28;20552;-78
2023/02/18 07:23:27;;;;;;;4.60;2.20;;;9.70;99.90;;;8.81;100.00;102693.34;4168363;28;20033;-78
2023/02/18 07:25:28;;;;;;;2.85;2.08;;;9.70;99.90;;;8.83;100.00;102697.56;4169071;28;20051;-78
2023/02/18 07:27:29;;;;;;;3.72;2.33;;;9.70;99.90;;;8.76;100.00;102680.47;4170860;28;20112;-78
2023/02/18 07:29:30;;;;;;;3.63;2.30;;;9.70;99.90;;;8.80;100.00;102687.25;4168028;28;20036;-78
2023/02/18 07:31:30;;;;;;;3.38;2.45;;;9.80;99.90;;;8.87;100.00;102693.78;4168217;28;20108;-78
2023/02/18 07:33:32;;;;;;;4.03;2.22;;;9.80;99.90;;;8.87;100.00;102688.53;4151895;28;20509;-78
2023/02/18 07:35:33;;;;;;;4.05;2.40;;;9.80;99.90;;;8.92;100.00;102697.91;4167969;28;20516;-78
2023/02/18 07:37:34;;;;;;;5.25;2.83;;;9.80;99.90;;;8.86;100.00;102692.13;4169392;28;20040;-78
2023/02/18 07:39:38;;;;;;;6.80;2.75;;;9.80;99.90;;;8.92;100.00;102690.88;4167986;28;20021;-78
2023/02/18 07:41:39;;;;;;;4.22;2.85;;;9.80;99.90;;;8.88;100.00;102684.09;4168427;28;20025;-78
2023/02/18 07:43:40;;;;;;;6.90;3.08;;;9.80;99.90;;;8.90;100.00;102690.97;4168176;28;20422;-78
2023/02/18 07:45:41;;;;;;;4.13;2.70;;;9.80;99.90;;;9.01;100.00;102705.22;4166135;28;20030;-78
2023/02/18 07:47:44;;;;;;;4.80;3.17;;;9.90;99.90;;;8.96;100.00;102692.34;4179440;28;20017;-78
2023/02/18 07:49:46;;;;;;;3.85;2.72;;;9.90;99.90;;;9.00;100.00;102701.75;4168220;28;20022;-78
2023/02/18 07:51:49;;;;;;;7.43;2.70;;;9.90;99.90;;;9.02;100.00;102691.13;4167878;28;20031;-78
2023/02/18 07:53:50;;;;;;;4.25;2.60;;;9.90;99.90;;;9.04;100.00;102698.00;4197199;28;20059;-78
2023/02/18 07:55:51;;;;;;;4.75;2.45;;;10.00;99.90;;;9.11;100.00;102706.34;4152163;28;20032;-78
2023/02/18 07:57:59;;;;;;;5.13;2.45;;;10.00;99.90;;;9.14;100.00;102698.25;4184208;28;20033;-78
2023/02/18 08:00:00;;;;;;;4.22;2.45;;;10.00;99.90;;;9.22;100.00;102703.84;4168644;28;20385;-78
2023/02/18 08:02:04;;;;;;;4.68;2.97;;;10.10;99.90;;;9.25;100.00;102704.50;4185313;28;20087;-78
2023/02/18 08:04:05;;;;;;;7.28;2.90;;;10.10;99.90;;;9.27;100.00;102699.13;4184281;28;20028;-78
2023/02/18 08:06:07;;;;;;;8.07;4.10;;;10.20;99.90;;;9.28;100.00;102693.78;4181239;28;20037;-78
2023/02/18 08:08:13;;;;;;;5.00;3.40;;;10.20;99.90;;;9.31;100.00;102700.63;4167677;28;20563;-78
2023/02/18 08:10:14;;;;;;;7.50;4.30;;;10.30;99.90;;;9.39;100.00;102696.53;4167512;28;20406;-78
2023/02/18 08:12:15;;;;;;;6.55;3.33;;;10.30;99.90;;;9.42;100.00;102690.22;4167664;28;20023;-78
2023/02/18 08:14:16;;;;;;;5.40;3.15;;;10.30;99.90;;;9.45;100.00;102696.13;4167655;28;20033;-78
2023/02/18 08:16:19;;;;;;;4.30;2.70;;;10.30;99.90;;;9.45;100.00;102700.56;4171589;28;20024;-78
2023/02/18 08:18:24;;;;;;;6.37;4.10;;;10.30;99.90;;;9.36;100.00;102690.63;4170972;28;20112;-78
2023/02/18 08:20:25;;;;;;;6.75;4.32;;;10.30;99.90;;;9.36;100.00;102706.44;4185177;28;20107;-78
2023/02/18 08:22:26;;;;;;;6.80;4.00;;;10.30;99.90;;;9.36;100.00;102706.44;4184165;28;20021;-78
2023/02/18 08:24:27;;;;;;;7.45;3.80;;;10.30;99.90;;;9.43;100.00;102708.56;4183975;28;20092;-78
2023/02/18 08:26:28;;;;;;;5.55;4.22;;;10.30;99.90;;;9.52;100.00;102691.31;4178344;28;20057;-78
2023/02/18 08:28:29;;;;;;;4.15;3.13;;;10.40;99.90;;;9.69;100.00;102712.09;4167289;28;20469;-78
2023/02/18 08:30:30;;;;;;;4.68;3.20;;;10.50;99.90;;;9.78;100.00;102711.50;4167038;28;20108;-78
2023/02/18 08:32:31;;;;;;;5.72;3.00;;;10.60;99.90;;;9.78;100.00;102706.22;4167787;28;20113;-78
2023/02/18 08:34:32;;;;;;;3.90;3.00;;;10.70;99.90;;;9.89;100.00;102698.44;4167429;28;20037;-78
2023/02/18 08:36:34;;;;;;;3.85;2.90;;;10.70;99.90;;;9.93;100.00;102689.38;4169906;28;20025;-78
2023/02/18 08:38:36;;;;;;;4.72;2.45;;;10.80;99.90;;;10.00;100.00;102695.09;4168560;28;20076;-78
2023/02/18 08:40:37;;;;;;;5.32;2.70;;;10.90;99.90;;;10.10;100.00;102697.91;4168182;28;20029;-78
2023/02/18 08:42:38;;;;;;;4.80;2.83;;;10.90;99.90;;;10.15;100.00;102696.69;4171215;28;20057;-78